Clermont, Florida
Current Conditions -  °F | °C
As of 3:29 PM on Monday 22 Dec 2014 (Local Time) from KLEE Reporting Station
Broken Clouds Broken Clouds  
Wind Chill: 74°   Ceiling: 2800
Heat Index: 74°   Visibility: 10mi
Dew Point: 67°   Wind: 9mph
Humidity: 79%   Direction: 160°SSE
Pressure: 29.9"   Gusts: NA
Location:  28.55°N, 81.77°W
Report Text: KLEE 222029Z 16008KT 10SM BKN028 23/19 A2990 RMK AO2 T02330194
Loading
Personal Weather Stations






























Interactive Weather Map New forecast layout! Learn more

10-Day Weather Forecast

Advertisements
Track Severe Weather on mobile